Wednesday, May 23, 2018, 9:04 AM EDT
Back to Local

KSWF, Newburgh / Stewart

Location: New Windsor, NY, United States Lat: 41.5
Local Time: 9:04 AM EDT (13:04 GMT) Lon: -74.1
Time Zone: US/Eastern Elev: 492 ft

Show me the last for .
Show Decoded

2018-05-23 08:45 METAR KSWF 231245Z 00000KT 7SM OVC007 17/17 A2994 =
2018-05-23 07:45 METAR KSWF 231145Z 25005KT 10SM SCT004 BKN110 17/17 A2992 =
2018-05-23 06:45 METAR KSWF 231045Z 25005KT 10SM SCT004 BKN110 15/15 A2991 =
2018-05-23 05:45 METAR KSWF 230945Z 25005KT 6SM BR SCT005 BKN030 14/14 A2991 =
2018-05-23 05:15 METAR KSWF 230915Z 00000KT 6SM BR SCT030 BKN100 14/14 A2989 =
2018-05-23 04:45 METAR KSWF 230845Z 26005KT 5SM -RA BR BKN004 OVC030 14/14 A2991 =
2018-05-23 03:45 METAR KSWF 230745Z 26005KT 5SM -RA BR OVC004 14/14 A2991 =
2018-05-23 02:45 METAR KSWF 230645Z 27005KT 6SM -RA BR OVC004 14/14 A2992 =
2018-05-23 01:45 METAR KSWF 230545Z 27005KT 5SM -RA BR OVC004 14/14 A2993 RMK TS DST E OCNL
                 LTGCCCG =
2018-05-23 01:15 METAR KSWF 230515Z 26006KT 4SM TS -RABR OVC004 14/14 A2994 RMK TS N MOV E OCNL
                 LTGCC =
2018-05-23 00:45 METAR KSWF 230445Z 27005KT 6SM BR OVC006 14/14 A2995 =
2018-05-22 23:45 METAR KSWF 230345Z 23005KT 6SM BR OVC006 14/14 A2998 =
2018-05-22 22:45 METAR KSWF 230245Z 23006KT 8SM OVC010 14/14 A2999 =
2018-05-22 20:45 METAR KSWF 230045Z 00000KT 10SM OVC030 14/13 A2999 =
2018-05-22 19:45 METAR KSWF 222345Z 00000KT 10SM OVC030 14/13 A3001 =
2018-05-22 18:45 METAR KSWF 222245Z 27005KT 10SM SCT010 OVC030 14/13 A3002 =
2018-05-22 17:45 METAR KSWF 222145Z 00000KT 10SM SCT010 OVC030 14/13 A3006 =
2018-05-22 16:45 METAR KSWF 222045Z 24005KT 10SM -DZ SCT024 OVC035 15/12 A3006 =
2018-05-22 15:45 METAR KSWF 221945Z 21005KT 10SM -DZ FEW011 SCT035 OVC060 15/10 A3009 =
2018-05-22 14:45 METAR KSWF 221845Z 21005KT 10SM -DZ FEW011 SCT035 OVC060 18/16 A3010 =
2018-05-22 12:45 METAR KSWF 221645Z 00000KT 10SM -DZ OVC065 17/16 A3012 =
2018-05-22 11:45 METAR KSWF 221545Z 00000KT 6SM -DZ BR SCT010 OVC065 17/16 A3014 =
2018-05-22 10:45 METAR KSWF 221445Z 00000KT 6SM -DZ BR OVC065 17/15 A3015 =
2018-05-22 09:45 METAR KSWF 221345Z 27008KT 10SM -DZ SCT020 OVC080 17/15 A3017 =

Support USWX by starting your Amazon purchase here.